createdAt,value
2024-04-30T00:01:01.195Z,3.20
2024-04-30T00:03:41.386Z,5.70
2024-04-30T00:06:10.102Z,4.00
2024-04-30T00:08:38.414Z,4.50
2024-04-30T00:11:06.480Z,4.60
2024-04-30T00:13:34.410Z,3.90
2024-04-30T00:16:03.551Z,4.00
2024-04-30T00:18:31.127Z,3.30
2024-04-30T00:20:59.232Z,4.90
2024-04-30T00:23:26.751Z,4.80
2024-04-30T00:25:54.290Z,4.60
2024-04-30T00:28:21.844Z,3.20
2024-04-30T00:30:49.454Z,5.20
2024-04-30T00:33:17.092Z,4.00
2024-04-30T00:35:44.729Z,3.90
2024-04-30T00:38:12.302Z,4.70
2024-04-30T00:40:39.945Z,5.20
2024-04-30T00:43:07.574Z,4.30
2024-04-30T00:45:35.251Z,3.60
2024-04-30T00:48:05.546Z,4.30
2024-04-30T00:50:34.157Z,5.90
2024-04-30T00:53:02.944Z,5.70
2024-04-30T00:55:30.809Z,4.10
2024-04-30T00:57:58.740Z,4.50
2024-04-30T01:00:26.286Z,4.70
2024-04-30T01:02:53.861Z,3.90
2024-04-30T01:05:21.477Z,4.50
2024-04-30T01:07:49.107Z,3.90
2024-04-30T01:10:17.640Z,5.50
2024-04-30T01:12:45.359Z,5.50
2024-04-30T01:15:13.803Z,5.60
2024-04-30T01:17:41.370Z,4.00
2024-04-30T01:20:11.022Z,4.90
2024-04-30T01:22:42.987Z,5.00
2024-04-30T01:25:10.680Z,3.90
2024-04-30T01:27:38.317Z,3.90
2024-04-30T01:30:07.604Z,4.90
2024-04-30T01:32:35.393Z,4.60
2024-04-30T01:35:03.167Z,4.70
2024-04-30T01:37:30.942Z,4.90
2024-04-30T01:39:58.741Z,5.20
2024-04-30T01:42:26.293Z,3.90
2024-04-30T01:44:53.833Z,3.80
2024-04-30T01:47:21.681Z,4.40
2024-04-30T01:49:49.258Z,3.80
2024-04-30T01:52:16.825Z,4.60
2024-04-30T01:54:44.598Z,5.10
2024-04-30T01:57:12.250Z,5.40
2024-04-30T01:59:44.160Z,5.10
2024-04-30T02:02:12.038Z,4.20
2024-04-30T02:04:46.443Z,4.20
2024-04-30T02:07:17.297Z,5.00
2024-04-30T02:09:45.054Z,4.50
2024-04-30T02:12:12.690Z,4.70
2024-04-30T02:14:40.491Z,5.00
2024-04-30T02:17:08.302Z,5.40
2024-04-30T02:19:35.974Z,5.10
2024-04-30T02:22:03.841Z,7.10
2024-04-30T02:24:31.422Z,5.20
2024-04-30T02:26:58.956Z,5.00
2024-04-30T02:29:26.773Z,5.80
2024-04-30T02:32:13.296Z,5.90
2024-04-30T02:34:40.871Z,5.50
2024-04-30T02:37:08.468Z,4.70
2024-04-30T02:39:36.150Z,5.00
2024-04-30T02:42:03.980Z,6.40
2024-04-30T02:44:34.398Z,5.40
2024-04-30T02:47:02.695Z,4.40
2024-04-30T02:49:30.500Z,4.70
2024-04-30T02:51:58.216Z,5.90
2024-04-30T02:54:25.741Z,6.80
2024-04-30T02:56:53.269Z,5.60
2024-04-30T02:59:20.794Z,5.40
2024-04-30T03:01:48.408Z,6.00
2024-04-30T03:04:16.133Z,6.10
2024-04-30T03:06:43.808Z,6.60
2024-04-30T03:09:11.357Z,6.00
2024-04-30T03:11:46.047Z,6.30
2024-04-30T03:14:13.801Z,4.60
2024-04-30T03:16:44.953Z,6.10
2024-04-30T03:19:12.568Z,5.30
2024-04-30T03:21:40.221Z,4.80
2024-04-30T03:24:08.196Z,5.40
2024-04-30T03:26:43.246Z,6.00
2024-04-30T03:29:10.859Z,5.60
2024-04-30T03:31:38.441Z,5.00
2024-04-30T03:34:06.238Z,5.30
2024-04-30T03:36:33.833Z,4.30
2024-04-30T03:39:01.603Z,5.40
2024-04-30T03:41:29.224Z,7.30
2024-04-30T03:43:56.745Z,6.00
2024-04-30T03:46:24.442Z,5.70
2024-04-30T03:48:52.002Z,7.20
2024-04-30T03:51:19.820Z,5.50
2024-04-30T03:53:47.979Z,5.20
2024-04-30T03:56:15.734Z,7.60
2024-04-30T03:58:43.313Z,6.00
2024-04-30T04:01:11.041Z,4.80
2024-04-30T04:03:38.758Z,6.70
2024-04-30T04:06:06.474Z,6.80
2024-04-30T04:08:34.000Z,7.10
2024-04-30T04:11:20.114Z,6.20
2024-04-30T04:14:06.386Z,7.40
2024-04-30T04:16:34.105Z,7.00
2024-04-30T04:19:01.832Z,7.00
2024-04-30T04:21:29.472Z,8.30
2024-04-30T04:23:57.022Z,6.20
2024-04-30T04:26:24.599Z,6.60
2024-04-30T04:28:52.183Z,6.80
2024-04-30T04:31:19.761Z,7.00
2024-04-30T04:33:47.316Z,7.20
2024-04-30T04:36:16.143Z,9.50
2024-04-30T04:38:43.923Z,8.20
2024-04-30T04:41:11.516Z,9.70
2024-04-30T04:43:39.109Z,7.00
2024-04-30T04:46:06.881Z,8.10
2024-04-30T04:48:34.577Z,6.90
2024-04-30T04:51:02.238Z,7.30
2024-04-30T04:53:29.758Z,7.40
2024-04-30T04:55:57.979Z,10.50
2024-04-30T04:58:25.645Z,10.00
2024-04-30T05:00:53.262Z,8.40
2024-04-30T05:03:20.874Z,7.70
2024-04-30T05:05:48.451Z,7.70
2024-04-30T05:08:16.008Z,8.00
2024-04-30T05:10:43.749Z,10.20
2024-04-30T05:13:11.396Z,8.40
2024-04-30T05:15:39.057Z,9.30
2024-04-30T05:18:06.734Z,10.00
2024-04-30T05:20:34.273Z,8.70
2024-04-30T05:23:02.011Z,9.20
2024-04-30T05:25:29.759Z,8.80
2024-04-30T05:27:57.403Z,9.40
2024-04-30T05:30:25.364Z,8.80
2024-04-30T05:32:52.991Z,8.10
2024-04-30T05:35:20.649Z,7.80
2024-04-30T05:37:48.430Z,10.20
2024-04-30T05:40:16.004Z,7.40
2024-04-30T05:42:43.568Z,9.90
2024-04-30T05:45:12.837Z,11.80
2024-04-30T05:47:40.649Z,10.60
2024-04-30T05:50:08.230Z,9.50
2024-04-30T05:52:35.850Z,9.00
2024-04-30T05:55:03.667Z,10.90
2024-04-30T05:57:31.319Z,8.60
2024-04-30T05:59:58.834Z,8.70
2024-04-30T06:02:26.400Z,7.90
2024-04-30T06:04:54.042Z,11.10
2024-04-30T06:07:21.755Z,8.20
2024-04-30T06:09:49.644Z,8.70
2024-04-30T06:12:17.263Z,8.40
2024-04-30T06:14:45.002Z,9.30
2024-04-30T06:17:12.674Z,7.40
2024-04-30T06:19:40.331Z,10.20
2024-04-30T06:22:08.145Z,7.10
2024-04-30T06:24:35.844Z,6.90
2024-04-30T06:27:03.849Z,8.00
2024-04-30T06:29:31.406Z,9.10
2024-04-30T06:31:58.996Z,8.30
2024-04-30T06:34:26.701Z,10.60
2024-04-30T06:36:54.256Z,8.10
2024-04-30T06:39:22.896Z,8.90
2024-04-30T06:41:50.534Z,7.00
2024-04-30T06:44:18.088Z,7.60
2024-04-30T06:46:45.676Z,9.20
2024-04-30T06:49:13.350Z,6.00
2024-04-30T06:51:41.435Z,7.60
2024-04-30T06:54:09.074Z,11.50
2024-04-30T06:56:36.706Z,8.20
2024-04-30T06:59:04.270Z,7.20
2024-04-30T07:01:31.878Z,5.70
2024-04-30T07:03:59.484Z,6.30
2024-04-30T07:06:27.163Z,7.20
2024-04-30T07:08:54.690Z,6.50
2024-04-30T07:11:22.339Z,4.50
2024-04-30T07:13:50.015Z,4.40
2024-04-30T07:16:17.647Z,5.10
2024-04-30T07:18:46.342Z,3.60
2024-04-30T07:21:13.955Z,5.40
2024-04-30T07:23:41.554Z,4.20
2024-04-30T07:26:09.070Z,5.20
2024-04-30T07:28:36.840Z,3.60
2024-04-30T07:31:04.620Z,5.70
2024-04-30T07:33:32.228Z,3.50
2024-04-30T07:35:59.785Z,3.60
2024-04-30T07:38:27.386Z,3.30
2024-04-30T07:40:55.497Z,3.90
2024-04-30T07:43:23.087Z,3.70
2024-04-30T07:45:50.649Z,3.70
2024-04-30T07:48:18.295Z,4.40
2024-04-30T07:50:45.963Z,3.50
2024-04-30T07:53:13.510Z,3.70
2024-04-30T07:55:41.320Z,3.70
2024-04-30T07:58:08.990Z,3.90
2024-04-30T08:00:36.618Z,3.50
2024-04-30T08:03:04.629Z,3.30
2024-04-30T08:05:41.975Z,2.80
2024-04-30T08:08:13.448Z,4.80
2024-04-30T08:10:41.752Z,1.70
2024-04-30T08:13:09.435Z,4.40
2024-04-30T08:15:37.078Z,3.20
2024-04-30T08:18:05.148Z,3.30
2024-04-30T08:20:32.885Z,2.10
2024-04-30T08:23:00.470Z,2.10
2024-04-30T08:25:28.025Z,2.40
2024-04-30T08:27:55.521Z,4.00
2024-04-30T08:30:23.116Z,1.80
2024-04-30T08:32:51.226Z,2.30
2024-04-30T08:35:18.873Z,2.10
2024-04-30T08:37:54.042Z,3.40
2024-04-30T08:40:26.049Z,2.80
2024-04-30T08:42:53.808Z,3.20
2024-04-30T08:45:26.449Z,2.10
2024-04-30T08:47:58.368Z,2.00
2024-04-30T08:50:28.120Z,2.70
2024-04-30T08:52:57.318Z,2.20
2024-04-30T08:55:26.339Z,1.80
2024-04-30T08:57:54.030Z,3.20
2024-04-30T09:00:21.558Z,1.40
2024-04-30T09:02:53.879Z,1.80
2024-04-30T09:05:23.060Z,2.90
2024-04-30T09:07:50.789Z,1.70
2024-04-30T09:10:18.391Z,2.40
2024-04-30T09:12:45.960Z,2.80
2024-04-30T09:15:18.189Z,2.60
2024-04-30T09:17:45.872Z,3.40
2024-04-30T09:20:13.623Z,1.10
2024-04-30T09:22:46.951Z,2.90
2024-04-30T09:25:16.175Z,3.20
2024-04-30T09:27:44.956Z,2.30
2024-04-30T09:30:21.742Z,1.90
2024-04-30T09:32:49.978Z,1.70
2024-04-30T09:35:28.395Z,1.40
2024-04-30T09:38:01.406Z,3.70
2024-04-30T09:40:32.355Z,2.20
2024-04-30T09:43:01.306Z,3.40
2024-04-30T09:45:31.951Z,3.30
2024-04-30T09:48:08.833Z,3.10
2024-04-30T09:50:38.457Z,2.40
2024-04-30T09:53:07.789Z,2.40
2024-04-30T09:55:38.053Z,2.20
2024-04-30T09:58:07.135Z,1.30
2024-04-30T10:00:34.947Z,3.30
2024-04-30T10:03:09.976Z,2.60
2024-04-30T10:05:45.067Z,2.10
2024-04-30T10:08:15.543Z,2.70
2024-04-30T10:10:43.300Z,2.00
2024-04-30T10:13:23.556Z,1.90
2024-04-30T10:15:51.290Z,2.40
2024-04-30T10:18:23.629Z,2.70
2024-04-30T10:20:51.523Z,1.20
2024-04-30T10:23:32.823Z,1.80
2024-04-30T10:26:07.422Z,2.10
2024-04-30T10:28:37.489Z,2.00
2024-04-30T10:31:13.098Z,3.10
2024-04-30T10:33:41.068Z,1.90
2024-04-30T10:36:11.000Z,2.70
2024-04-30T10:38:42.324Z,2.70
2024-04-30T10:41:10.813Z,4.10
2024-04-30T10:43:38.445Z,3.70
2024-04-30T10:46:32.277Z,4.70
2024-04-30T10:48:59.856Z,4.50
2024-04-30T10:51:27.514Z,2.30
2024-04-30T10:53:58.163Z,2.90
2024-04-30T10:56:25.949Z,3.50
2024-04-30T10:58:58.791Z,4.60
2024-04-30T11:01:30.179Z,3.30
2024-04-30T11:04:18.137Z,3.00
2024-04-30T11:06:48.092Z,1.60
2024-04-30T11:09:16.338Z,2.60
2024-04-30T11:11:49.825Z,3.20
2024-04-30T11:14:19.143Z,3.00
2024-04-30T11:16:47.924Z,2.20
2024-04-30T11:19:16.019Z,1.70
2024-04-30T11:21:44.470Z,2.90
2024-04-30T11:24:12.028Z,2.30
2024-04-30T11:26:39.701Z,4.20
2024-04-30T11:31:37.922Z,2.90
2024-04-30T11:34:06.030Z,0.90
2024-04-30T11:36:33.799Z,1.50
2024-04-30T11:39:01.369Z,1.50
2024-04-30T11:41:28.974Z,1.50
2024-04-30T11:43:58.366Z,2.20
2024-04-30T11:46:25.999Z,2.50
2024-04-30T11:48:53.805Z,3.00
2024-04-30T11:51:21.617Z,1.60
2024-04-30T11:53:49.394Z,1.40
2024-04-30T11:56:16.994Z,2.60
2024-04-30T11:58:44.713Z,4.40
2024-04-30T12:01:12.538Z,2.20
2024-04-30T12:03:40.079Z,1.90
2024-04-30T12:06:07.637Z,1.60
2024-04-30T12:08:38.092Z,3.30
2024-04-30T12:11:05.723Z,3.00
2024-04-30T12:13:35.848Z,2.40
2024-04-30T12:16:04.154Z,2.00
2024-04-30T12:18:32.084Z,3.00
2024-04-30T12:20:59.727Z,1.70
2024-04-30T12:23:27.374Z,1.70
2024-04-30T12:25:55.800Z,3.10
2024-04-30T12:28:23.367Z,2.90
2024-04-30T12:30:51.129Z,1.70
2024-04-30T12:33:20.441Z,3.00
2024-04-30T12:35:49.101Z,2.00
2024-04-30T12:38:16.969Z,3.30
2024-04-30T12:40:45.630Z,2.50
2024-04-30T12:43:13.626Z,1.40
2024-04-30T12:45:41.835Z,3.30
2024-04-30T12:48:09.630Z,4.00
2024-04-30T12:50:37.256Z,3.70
2024-04-30T12:53:04.852Z,1.40
2024-04-30T12:55:35.042Z,2.00
2024-04-30T12:58:03.200Z,3.30
2024-04-30T13:00:30.747Z,2.20
2024-04-30T13:02:58.457Z,3.00
2024-04-30T13:05:27.014Z,1.90
2024-04-30T13:07:54.687Z,1.70
2024-04-30T13:10:22.401Z,2.10
2024-04-30T13:12:49.955Z,1.20
2024-04-30T13:15:17.625Z,2.10
2024-04-30T13:17:45.267Z,3.00
2024-04-30T13:20:13.050Z,2.30
2024-04-30T13:22:40.654Z,2.60
2024-04-30T13:25:08.338Z,3.70
2024-04-30T13:27:35.885Z,1.40
2024-04-30T13:30:03.888Z,2.50
2024-04-30T13:32:31.457Z,2.10
2024-04-30T13:34:59.021Z,1.90
2024-04-30T13:37:26.586Z,2.80
2024-04-30T13:39:54.201Z,2.90
2024-04-30T13:42:21.886Z,1.00
2024-04-30T13:44:50.033Z,2.00
2024-04-30T13:47:17.932Z,2.90
2024-04-30T13:49:47.380Z,2.60
2024-04-30T13:52:15.054Z,2.40
2024-04-30T13:54:42.656Z,1.90
2024-04-30T13:57:10.209Z,1.60
2024-04-30T13:59:37.819Z,2.60
2024-04-30T14:02:08.411Z,1.90
2024-04-30T14:04:36.379Z,3.10
2024-04-30T14:07:04.250Z,4.10
2024-04-30T14:09:33.818Z,2.70
2024-04-30T14:12:02.949Z,1.70
2024-04-30T14:14:30.815Z,1.30
2024-04-30T14:16:58.380Z,2.30
2024-04-30T14:19:26.144Z,2.40
2024-04-30T14:21:53.749Z,3.70
2024-04-30T14:24:21.425Z,3.30
2024-04-30T14:26:50.506Z,1.50
2024-04-30T14:29:19.506Z,2.70
2024-04-30T14:31:47.104Z,2.60
2024-04-30T14:34:14.820Z,2.40
2024-04-30T14:36:44.966Z,3.00
2024-04-30T14:39:12.951Z,2.90
2024-04-30T14:41:42.556Z,1.40
2024-04-30T14:44:13.939Z,3.90
2024-04-30T14:46:41.946Z,4.60
2024-04-30T14:49:09.813Z,1.90
2024-04-30T14:51:40.437Z,4.40
2024-04-30T14:54:08.615Z,2.60
2024-04-30T14:56:37.521Z,2.10
2024-04-30T14:59:05.210Z,2.70
2024-04-30T15:01:33.001Z,3.30
2024-04-30T15:04:00.795Z,1.20
2024-04-30T15:06:29.230Z,3.20
2024-04-30T15:08:56.948Z,2.30
2024-04-30T15:11:25.339Z,1.90
2024-04-30T15:13:53.592Z,2.70
2024-04-30T15:16:21.418Z,2.20
2024-04-30T15:18:49.448Z,3.60
2024-04-30T15:21:17.038Z,2.60
2024-04-30T15:23:45.487Z,3.30
2024-04-30T15:26:15.166Z,3.50
2024-04-30T15:28:43.216Z,3.10
2024-04-30T15:31:21.512Z,3.10
2024-04-30T15:33:49.832Z,2.80
2024-04-30T15:36:17.417Z,4.70
2024-04-30T15:38:46.193Z,4.30
2024-04-30T15:41:23.346Z,2.50
2024-04-30T15:43:51.433Z,2.70
2024-04-30T15:46:19.308Z,2.10
2024-04-30T15:48:50.232Z,1.60
2024-04-30T15:51:19.317Z,3.80
2024-04-30T15:53:46.951Z,2.50
2024-04-30T15:56:17.579Z,2.80
2024-04-30T15:58:47.651Z,2.40
2024-04-30T16:01:15.775Z,1.70
2024-04-30T16:03:44.313Z,1.80
2024-04-30T16:06:12.212Z,3.00
2024-04-30T16:08:39.775Z,4.10
2024-04-30T16:11:10.434Z,2.10
2024-04-30T16:13:40.132Z,3.30
2024-04-30T16:16:15.435Z,1.20
2024-04-30T16:18:47.694Z,3.00
2024-04-30T16:21:16.656Z,2.80
2024-04-30T16:23:44.500Z,2.70
2024-04-30T16:26:12.264Z,2.60
2024-04-30T16:28:43.905Z,1.80
2024-04-30T16:31:14.707Z,1.40
2024-04-30T16:33:42.903Z,2.50
2024-04-30T16:36:20.647Z,4.70
2024-04-30T16:38:49.812Z,1.20
2024-04-30T16:41:17.921Z,2.40
2024-04-30T16:43:45.505Z,1.90
2024-04-30T16:46:13.144Z,2.30
2024-04-30T16:48:41.167Z,1.50
2024-04-30T16:51:14.818Z,1.20
2024-04-30T16:53:43.148Z,4.10
2024-04-30T16:56:11.024Z,3.20
2024-04-30T16:58:38.783Z,2.00
2024-04-30T17:01:06.896Z,1.60
2024-04-30T17:03:34.964Z,2.00
2024-04-30T17:06:11.243Z,3.70
2024-04-30T17:08:40.012Z,1.50
2024-04-30T17:11:11.871Z,2.30
2024-04-30T17:13:44.216Z,1.50
2024-04-30T17:16:23.511Z,1.90
2024-04-30T17:18:51.586Z,2.00
2024-04-30T17:21:22.351Z,2.00
2024-04-30T17:23:50.250Z,2.70
2024-04-30T17:26:25.364Z,2.10
2024-04-30T17:28:54.970Z,1.80
2024-04-30T17:31:23.952Z,1.60
2024-04-30T17:33:55.786Z,2.40
2024-04-30T17:36:23.671Z,3.50
2024-04-30T17:38:51.391Z,2.00
2024-04-30T17:41:23.787Z,1.90
2024-04-30T17:43:51.716Z,3.10
2024-04-30T17:46:19.829Z,2.60
2024-04-30T17:48:48.462Z,2.10
2024-04-30T17:51:16.653Z,1.50
2024-04-30T17:53:44.223Z,4.50
2024-04-30T17:56:11.880Z,2.60
2024-04-30T17:58:40.166Z,2.20
2024-04-30T18:01:07.846Z,1.70
2024-04-30T18:03:35.788Z,2.20
2024-04-30T18:06:03.571Z,4.30
2024-04-30T18:08:31.148Z,1.50
2024-04-30T18:10:58.800Z,1.80
2024-04-30T18:13:26.338Z,3.10
2024-04-30T18:15:54.208Z,1.80
2024-04-30T18:18:22.698Z,2.80
2024-04-30T18:20:50.329Z,2.80
2024-04-30T18:23:17.954Z,2.30
2024-04-30T18:25:45.482Z,2.00
2024-04-30T18:28:13.167Z,2.30
2024-04-30T18:30:40.703Z,1.90
2024-04-30T18:33:08.326Z,1.40
2024-04-30T18:35:35.939Z,1.90
2024-04-30T18:38:03.581Z,1.70
2024-04-30T18:40:31.117Z,2.30
2024-04-30T18:42:58.797Z,1.50
2024-04-30T18:45:26.374Z,2.20
2024-04-30T18:47:54.031Z,1.50
2024-04-30T18:50:21.641Z,2.70
2024-04-30T18:52:49.529Z,3.80
2024-04-30T18:55:17.119Z,2.20
2024-04-30T18:57:45.229Z,3.60
2024-04-30T19:00:13.182Z,2.20
2024-04-30T19:02:41.336Z,3.10
2024-04-30T19:05:08.940Z,3.20
2024-04-30T19:07:36.573Z,1.90
2024-04-30T19:10:04.591Z,5.10
2024-04-30T19:12:32.297Z,2.10
2024-04-30T19:14:59.854Z,2.70
2024-04-30T19:17:27.437Z,2.40
2024-04-30T19:19:55.007Z,2.00
2024-04-30T19:22:22.568Z,1.90
2024-04-30T19:24:50.253Z,2.70
2024-04-30T19:27:19.941Z,1.70
2024-04-30T19:29:47.551Z,3.30
2024-04-30T19:32:16.018Z,3.10
2024-04-30T19:34:43.808Z,2.10
2024-04-30T19:37:11.389Z,2.80
2024-04-30T19:39:38.984Z,3.50
2024-04-30T19:42:06.812Z,3.60
2024-04-30T19:44:39.148Z,3.50
2024-04-30T19:47:07.517Z,3.10
2024-04-30T19:49:35.219Z,3.00
2024-04-30T19:52:03.372Z,2.70
2024-04-30T19:54:31.061Z,2.50
2024-04-30T19:56:59.181Z,2.60
2024-04-30T19:59:26.800Z,4.90
2024-04-30T20:01:54.400Z,2.90
2024-04-30T20:04:21.971Z,3.70
2024-04-30T20:06:49.730Z,2.40
2024-04-30T20:09:19.517Z,3.70
2024-04-30T20:11:47.319Z,3.40
2024-04-30T20:14:15.156Z,2.90
2024-04-30T20:16:46.120Z,3.50
2024-04-30T20:19:13.902Z,2.80
2024-04-30T20:21:41.556Z,4.10
2024-04-30T20:24:09.627Z,3.20
2024-04-30T20:26:37.524Z,3.30
2024-04-30T20:29:07.882Z,2.80
2024-04-30T20:31:36.402Z,3.20
2024-04-30T20:34:05.609Z,4.00
2024-04-30T20:36:33.178Z,6.10
2024-04-30T20:39:01.130Z,4.10
2024-04-30T20:41:28.755Z,4.80
2024-04-30T20:43:56.542Z,4.00
2024-04-30T20:46:24.105Z,3.80
2024-04-30T20:48:51.786Z,4.10
2024-04-30T20:51:19.701Z,4.50
2024-04-30T20:53:47.282Z,3.90
2024-04-30T20:56:14.877Z,5.50
2024-04-30T20:58:42.438Z,3.00
2024-04-30T21:01:17.111Z,4.80
2024-04-30T21:03:44.949Z,5.50
2024-04-30T21:06:12.629Z,4.90
2024-04-30T21:08:40.285Z,3.20
2024-04-30T21:11:14.059Z,3.70
2024-04-30T21:13:42.301Z,5.50
2024-04-30T21:16:09.888Z,5.50
2024-04-30T21:18:37.823Z,5.70
2024-04-30T21:21:06.073Z,5.20
2024-04-30T21:23:33.610Z,5.20
2024-04-30T21:26:01.204Z,5.60
2024-04-30T21:28:30.073Z,5.70
2024-04-30T21:30:57.698Z,6.00
2024-04-30T21:33:25.398Z,4.90
2024-04-30T21:35:53.554Z,4.60
2024-04-30T21:38:21.164Z,4.00
2024-04-30T21:40:48.738Z,5.60
2024-04-30T21:43:16.315Z,6.10
2024-04-30T21:45:43.921Z,4.80
2024-04-30T21:48:11.720Z,5.90
2024-04-30T21:50:39.311Z,7.10
2024-04-30T21:53:06.888Z,7.30
2024-04-30T21:55:34.439Z,6.10
2024-04-30T21:58:02.053Z,4.10
2024-04-30T22:00:29.656Z,4.50
2024-04-30T22:03:02.599Z,6.80
2024-04-30T22:05:31.270Z,5.50
2024-04-30T22:07:58.931Z,5.20
2024-04-30T22:10:26.481Z,4.50
2024-04-30T22:12:54.155Z,5.10
2024-04-30T22:15:21.874Z,5.20
2024-04-30T22:17:50.159Z,5.30
2024-04-30T22:20:18.036Z,6.60
2024-04-30T22:22:45.573Z,5.40
2024-04-30T22:25:13.274Z,4.20
2024-04-30T22:27:40.859Z,8.10
2024-04-30T22:30:17.317Z,4.80
2024-04-30T22:32:49.169Z,4.90
2024-04-30T22:35:16.937Z,7.10
2024-04-30T22:37:44.470Z,7.30
2024-04-30T22:40:12.108Z,5.00
2024-04-30T22:42:39.755Z,6.20
2024-04-30T22:45:07.559Z,6.20
2024-04-30T22:47:35.358Z,8.30
2024-04-30T22:50:03.297Z,6.20
2024-04-30T22:52:30.916Z,5.50
2024-04-30T22:54:58.844Z,5.90
2024-04-30T22:57:26.570Z,6.40
2024-04-30T22:59:54.168Z,6.90
2024-04-30T23:02:22.430Z,5.40
2024-04-30T23:04:50.384Z,6.70
2024-04-30T23:07:17.984Z,5.60
2024-04-30T23:09:45.588Z,7.00
2024-04-30T23:12:13.214Z,7.10
2024-04-30T23:14:40.779Z,7.30
2024-04-30T23:17:08.359Z,6.20
2024-04-30T23:19:35.934Z,6.90
2024-04-30T23:22:03.777Z,6.10
2024-04-30T23:24:31.538Z,8.90
2024-04-30T23:26:59.170Z,6.30
2024-04-30T23:29:28.102Z,6.40
2024-04-30T23:31:56.195Z,9.00
2024-04-30T23:34:23.939Z,7.20
2024-04-30T23:36:53.728Z,7.00
2024-04-30T23:39:21.554Z,8.90
2024-04-30T23:41:49.347Z,9.30
2024-04-30T23:44:16.897Z,7.60
2024-04-30T23:46:44.470Z,9.20
2024-04-30T23:49:12.124Z,10.10
2024-04-30T23:51:39.733Z,7.80
2024-04-30T23:54:07.321Z,6.50
2024-04-30T23:56:34.863Z,11.20
2024-04-30T23:59:02.415Z,11.20
